sensor_id;sensor_type;location;lat;lon;timestamp;P1;durP1;ratioP1;P2;durP2;ratioP2
12900;SDS011;6518;50.930;5.344;2023-02-28T00:01:06;8.73;;;4.63;;
12900;SDS011;6518;50.930;5.344;2023-02-28T00:03:33;6.73;;;5.20;;
12900;SDS011;6518;50.930;5.344;2023-02-28T00:06:00;6.30;;;4.70;;
12900;SDS011;6518;50.930;5.344;2023-02-28T00:08:28;10.80;;;5.23;;
12900;SDS011;6518;50.930;5.344;2023-02-28T00:10:55;9.97;;;5.50;;
12900;SDS011;6518;50.930;5.344;2023-02-28T00:13:23;7.20;;;4.87;;
12900;SDS011;6518;50.930;5.344;2023-02-28T00:15:58;8.33;;;5.13;;
12900;SDS011;6518;50.930;5.344;2023-02-28T00:18:26;9.27;;;5.43;;
12900;SDS011;6518;50.930;5.344;2023-02-28T00:20:53;8.03;;;5.20;;
12900;SDS011;6518;50.930;5.344;2023-02-28T00:23:19;13.07;;;5.70;;
12900;SDS011;6518;50.930;5.344;2023-02-28T00:25:46;6.80;;;4.97;;
12900;SDS011;6518;50.930;5.344;2023-02-28T00:28:13;9.60;;;5.10;;
12900;SDS011;6518;50.930;5.344;2023-02-28T00:30:42;6.27;;;5.10;;
12900;SDS011;6518;50.930;5.344;2023-02-28T00:33:09;9.37;;;5.37;;
12900;SDS011;6518;50.930;5.344;2023-02-28T00:35:35;14.33;;;5.73;;
12900;SDS011;6518;50.930;5.344;2023-02-28T00:38:02;9.27;;;5.10;;
12900;SDS011;6518;50.930;5.344;2023-02-28T00:40:29;6.83;;;6.00;;
12900;SDS011;6518;50.930;5.344;2023-02-28T00:42:56;7.57;;;5.40;;
12900;SDS011;6518;50.930;5.344;2023-02-28T00:45:23;8.37;;;5.30;;
12900;SDS011;6518;50.930;5.344;2023-02-28T00:47:52;7.20;;;4.90;;
12900;SDS011;6518;50.930;5.344;2023-02-28T00:50:19;8.73;;;5.50;;
12900;SDS011;6518;50.930;5.344;2023-02-28T00:52:46;9.00;;;5.03;;
12900;SDS011;6518;50.930;5.344;2023-02-28T00:55:13;5.83;;;4.40;;
12900;SDS011;6518;50.930;5.344;2023-02-28T00:57:40;6.97;;;5.00;;
12900;SDS011;6518;50.930;5.344;2023-02-28T01:00:07;8.00;;;5.10;;
12900;SDS011;6518;50.930;5.344;2023-02-28T01:02:36;9.87;;;5.53;;
12900;SDS011;6518;50.930;5.344;2023-02-28T01:05:04;13.47;;;5.60;;
12900;SDS011;6518;50.930;5.344;2023-02-28T01:07:31;7.60;;;5.07;;
12900;SDS011;6518;50.930;5.344;2023-02-28T01:09:58;8.93;;;5.90;;
12900;SDS011;6518;50.930;5.344;2023-02-28T01:12:25;7.37;;;5.50;;
12900;SDS011;6518;50.930;5.344;2023-02-28T01:14:52;7.23;;;5.53;;
12900;SDS011;6518;50.930;5.344;2023-02-28T01:17:18;8.87;;;5.43;;
12900;SDS011;6518;50.930;5.344;2023-02-28T01:19:45;7.80;;;5.50;;
12900;SDS011;6518;50.930;5.344;2023-02-28T01:22:13;9.03;;;6.27;;
12900;SDS011;6518;50.930;5.344;2023-02-28T01:24:40;7.63;;;5.73;;
12900;SDS011;6518;50.930;5.344;2023-02-28T01:27:07;8.93;;;5.97;;
12900;SDS011;6518;50.930;5.344;2023-02-28T01:29:34;6.97;;;5.90;;
12900;SDS011;6518;50.930;5.344;2023-02-28T01:32:00;9.60;;;5.67;;
12900;SDS011;6518;50.930;5.344;2023-02-28T01:34:27;7.93;;;5.73;;
12900;SDS011;6518;50.930;5.344;2023-02-28T01:36:54;10.87;;;5.23;;
12900;SDS011;6518;50.930;5.344;2023-02-28T01:39:25;10.87;;;5.27;;
12900;SDS011;6518;50.930;5.344;2023-02-28T01:41:51;7.83;;;5.30;;
12900;SDS011;6518;50.930;5.344;2023-02-28T01:47:22;9.13;;;5.37;;
12900;SDS011;6518;50.930;5.344;2023-02-28T01:49:51;11.53;;;5.80;;
12900;SDS011;6518;50.930;5.344;2023-02-28T01:52:19;7.20;;;5.33;;
12900;SDS011;6518;50.930;5.344;2023-02-28T01:54:49;8.40;;;5.73;;
12900;SDS011;6518;50.930;5.344;2023-02-28T01:57:18;8.43;;;5.67;;
12900;SDS011;6518;50.930;5.344;2023-02-28T01:59:50;11.13;;;6.20;;
12900;SDS011;6518;50.930;5.344;2023-02-28T02:02:21;8.37;;;5.43;;
12900;SDS011;6518;50.930;5.344;2023-02-28T02:04:50;8.60;;;5.77;;
12900;SDS011;6518;50.930;5.344;2023-02-28T02:07:21;8.27;;;6.27;;
12900;SDS011;6518;50.930;5.344;2023-02-28T02:09:56;11.10;;;6.40;;
12900;SDS011;6518;50.930;5.344;2023-02-28T02:12:27;10.40;;;5.60;;
12900;SDS011;6518;50.930;5.344;2023-02-28T02:15:12;8.17;;;6.40;;
12900;SDS011;6518;50.930;5.344;2023-02-28T02:17:47;9.00;;;6.10;;
12900;SDS011;6518;50.930;5.344;2023-02-28T02:20:27;11.77;;;6.20;;
12900;SDS011;6518;50.930;5.344;2023-02-28T02:26:38;10.53;;;6.13;;
12900;SDS011;6518;50.930;5.344;2023-02-28T02:29:26;10.10;;;6.47;;
12900;SDS011;6518;50.930;5.344;2023-02-28T02:32:22;10.03;;;6.40;;
12900;SDS011;6518;50.930;5.344;2023-02-28T02:35:12;7.67;;;5.77;;
12900;SDS011;6518;50.930;5.344;2023-02-28T02:37:43;9.17;;;6.10;;
12900;SDS011;6518;50.930;5.344;2023-02-28T02:40:16;11.00;;;6.47;;
12900;SDS011;6518;50.930;5.344;2023-02-28T02:42:48;8.93;;;6.10;;
12900;SDS011;6518;50.930;5.344;2023-02-28T02:45:22;9.47;;;6.10;;
12900;SDS011;6518;50.930;5.344;2023-02-28T02:47:52;10.93;;;6.20;;
12900;SDS011;6518;50.930;5.344;2023-02-28T02:50:24;12.27;;;6.50;;
12900;SDS011;6518;50.930;5.344;2023-02-28T02:52:55;8.83;;;6.23;;
12900;SDS011;6518;50.930;5.344;2023-02-28T02:55:26;8.87;;;6.10;;
12900;SDS011;6518;50.930;5.344;2023-02-28T02:57:53;11.27;;;6.47;;
12900;SDS011;6518;50.930;5.344;2023-02-28T03:00:25;7.77;;;5.97;;
12900;SDS011;6518;50.930;5.344;2023-02-28T03:02:56;10.40;;;6.60;;
12900;SDS011;6518;50.930;5.344;2023-02-28T03:05:26;12.20;;;6.50;;
12900;SDS011;6518;50.930;5.344;2023-02-28T03:07:56;10.07;;;6.20;;
12900;SDS011;6518;50.930;5.344;2023-02-28T03:10:27;6.97;;;5.97;;
12900;SDS011;6518;50.930;5.344;2023-02-28T03:13:00;11.10;;;6.83;;
12900;SDS011;6518;50.930;5.344;2023-02-28T03:15:38;7.67;;;6.40;;
12900;SDS011;6518;50.930;5.344;2023-02-28T03:18:19;9.77;;;6.53;;
12900;SDS011;6518;50.930;5.344;2023-02-28T03:20:56;7.70;;;6.10;;
12900;SDS011;6518;50.930;5.344;2023-02-28T03:23:30;8.93;;;6.87;;
12900;SDS011;6518;50.930;5.344;2023-02-28T03:26:07;9.30;;;6.43;;
12900;SDS011;6518;50.930;5.344;2023-02-28T03:28:40;8.90;;;6.20;;
12900;SDS011;6518;50.930;5.344;2023-02-28T03:31:12;9.23;;;6.27;;
12900;SDS011;6518;50.930;5.344;2023-02-28T03:33:44;12.30;;;7.10;;
12900;SDS011;6518;50.930;5.344;2023-02-28T03:36:21;9.67;;;6.60;;
12900;SDS011;6518;50.930;5.344;2023-02-28T03:38:53;11.43;;;6.27;;
12900;SDS011;6518;50.930;5.344;2023-02-28T03:41:27;10.43;;;6.70;;
12900;SDS011;6518;50.930;5.344;2023-02-28T03:44:00;10.17;;;6.50;;
12900;SDS011;6518;50.930;5.344;2023-02-28T03:46:32;12.87;;;6.90;;
12900;SDS011;6518;50.930;5.344;2023-02-28T03:49:06;12.00;;;7.10;;
12900;SDS011;6518;50.930;5.344;2023-02-28T03:51:41;8.73;;;6.70;;
12900;SDS011;6518;50.930;5.344;2023-02-28T03:54:12;12.57;;;6.97;;
12900;SDS011;6518;50.930;5.344;2023-02-28T03:56:43;10.83;;;6.80;;
12900;SDS011;6518;50.930;5.344;2023-02-28T03:59:15;8.70;;;7.30;;
12900;SDS011;6518;50.930;5.344;2023-02-28T04:01:47;10.27;;;7.07;;
12900;SDS011;6518;50.930;5.344;2023-02-28T04:04:15;11.20;;;6.73;;
12900;SDS011;6518;50.930;5.344;2023-02-28T04:06:44;9.97;;;6.43;;
12900;SDS011;6518;50.930;5.344;2023-02-28T04:09:12;8.97;;;6.63;;
12900;SDS011;6518;50.930;5.344;2023-02-28T04:11:41;13.47;;;7.07;;
12900;SDS011;6518;50.930;5.344;2023-02-28T04:14:10;9.43;;;6.77;;
12900;SDS011;6518;50.930;5.344;2023-02-28T04:16:38;9.97;;;6.90;;
12900;SDS011;6518;50.930;5.344;2023-02-28T04:19:07;9.30;;;6.70;;
12900;SDS011;6518;50.930;5.344;2023-02-28T04:21:36;9.87;;;7.37;;
12900;SDS011;6518;50.930;5.344;2023-02-28T04:24:06;8.40;;;6.70;;
12900;SDS011;6518;50.930;5.344;2023-02-28T04:26:35;14.07;;;7.27;;
12900;SDS011;6518;50.930;5.344;2023-02-28T04:29:03;11.00;;;7.20;;
12900;SDS011;6518;50.930;5.344;2023-02-28T04:31:31;10.80;;;7.27;;
12900;SDS011;6518;50.930;5.344;2023-02-28T04:33:58;8.60;;;6.70;;
12900;SDS011;6518;50.930;5.344;2023-02-28T04:36:25;9.50;;;7.00;;
12900;SDS011;6518;50.930;5.344;2023-02-28T04:38:52;14.43;;;7.30;;
12900;SDS011;6518;50.930;5.344;2023-02-28T04:41:21;11.30;;;6.87;;
12900;SDS011;6518;50.930;5.344;2023-02-28T04:43:48;11.47;;;7.37;;
12900;SDS011;6518;50.930;5.344;2023-02-28T04:46:15;15.13;;;7.63;;
12900;SDS011;6518;50.930;5.344;2023-02-28T04:48:43;10.37;;;7.37;;
12900;SDS011;6518;50.930;5.344;2023-02-28T04:51:10;11.70;;;7.47;;
12900;SDS011;6518;50.930;5.344;2023-02-28T04:53:39;11.23;;;7.80;;
12900;SDS011;6518;50.930;5.344;2023-02-28T04:56:07;10.97;;;7.60;;
12900;SDS011;6518;50.930;5.344;2023-02-28T04:58:37;15.60;;;7.77;;
12900;SDS011;6518;50.930;5.344;2023-02-28T05:01:05;12.47;;;8.10;;
12900;SDS011;6518;50.930;5.344;2023-02-28T05:03:40;15.10;;;8.00;;
12900;SDS011;6518;50.930;5.344;2023-02-28T05:06:07;12.83;;;7.57;;
12900;SDS011;6518;50.930;5.344;2023-02-28T05:08:34;10.13;;;8.17;;
12900;SDS011;6518;50.930;5.344;2023-02-28T05:11:01;9.07;;;7.03;;
12900;SDS011;6518;50.930;5.344;2023-02-28T05:13:28;9.73;;;7.27;;
12900;SDS011;6518;50.930;5.344;2023-02-28T05:15:56;9.90;;;7.70;;
12900;SDS011;6518;50.930;5.344;2023-02-28T05:18:23;17.40;;;7.70;;
12900;SDS011;6518;50.930;5.344;2023-02-28T05:20:50;10.07;;;7.67;;
12900;SDS011;6518;50.930;5.344;2023-02-28T05:23:16;13.83;;;8.17;;
12900;SDS011;6518;50.930;5.344;2023-02-28T05:25:46;11.17;;;7.53;;
12900;SDS011;6518;50.930;5.344;2023-02-28T05:28:13;8.90;;;7.63;;
12900;SDS011;6518;50.930;5.344;2023-02-28T05:30:40;10.63;;;6.90;;
12900;SDS011;6518;50.930;5.344;2023-02-28T05:33:10;14.10;;;8.40;;
12900;SDS011;6518;50.930;5.344;2023-02-28T05:35:38;12.47;;;7.77;;
12900;SDS011;6518;50.930;5.344;2023-02-28T05:38:05;14.10;;;8.43;;
12900;SDS011;6518;50.930;5.344;2023-02-28T05:40:32;11.47;;;8.53;;
12900;SDS011;6518;50.930;5.344;2023-02-28T05:42:59;9.43;;;7.90;;
12900;SDS011;6518;50.930;5.344;2023-02-28T05:45:25;10.83;;;7.37;;
12900;SDS011;6518;50.930;5.344;2023-02-28T05:47:53;10.70;;;7.87;;
12900;SDS011;6518;50.930;5.344;2023-02-28T05:50:21;12.60;;;8.50;;
12900;SDS011;6518;50.930;5.344;2023-02-28T05:52:49;11.43;;;8.23;;
12900;SDS011;6518;50.930;5.344;2023-02-28T05:55:16;12.77;;;8.10;;
12900;SDS011;6518;50.930;5.344;2023-02-28T05:57:43;14.07;;;8.47;;
12900;SDS011;6518;50.930;5.344;2023-02-28T06:00:10;12.00;;;8.57;;
12900;SDS011;6518;50.930;5.344;2023-02-28T06:02:40;11.83;;;8.83;;
12900;SDS011;6518;50.930;5.344;2023-02-28T06:05:07;10.83;;;8.80;;
12900;SDS011;6518;50.930;5.344;2023-02-28T06:07:40;9.63;;;7.73;;
12900;SDS011;6518;50.930;5.344;2023-02-28T06:10:07;12.07;;;8.70;;
12900;SDS011;6518;50.930;5.344;2023-02-28T06:12:35;15.67;;;8.60;;
12900;SDS011;6518;50.930;5.344;2023-02-28T06:15:02;9.87;;;8.00;;
12900;SDS011;6518;50.930;5.344;2023-02-28T06:17:29;11.23;;;7.83;;
12900;SDS011;6518;50.930;5.344;2023-02-28T06:19:56;10.80;;;8.47;;
12900;SDS011;6518;50.930;5.344;2023-02-28T06:22:23;16.77;;;7.50;;
12900;SDS011;6518;50.930;5.344;2023-02-28T06:24:51;10.83;;;8.17;;
12900;SDS011;6518;50.930;5.344;2023-02-28T06:27:19;10.73;;;8.23;;
12900;SDS011;6518;50.930;5.344;2023-02-28T06:29:47;12.83;;;8.57;;
12900;SDS011;6518;50.930;5.344;2023-02-28T06:32:13;10.30;;;7.77;;
12900;SDS011;6518;50.930;5.344;2023-02-28T06:34:40;11.40;;;8.13;;
12900;SDS011;6518;50.930;5.344;2023-02-28T06:37:07;12.07;;;8.07;;
12900;SDS011;6518;50.930;5.344;2023-02-28T06:39:34;9.77;;;7.93;;
12900;SDS011;6518;50.930;5.344;2023-02-28T06:42:02;12.07;;;7.53;;
12900;SDS011;6518;50.930;5.344;2023-02-28T06:44:29;12.93;;;8.13;;
12900;SDS011;6518;50.930;5.344;2023-02-28T06:47:00;11.60;;;7.43;;
12900;SDS011;6518;50.930;5.344;2023-02-28T06:49:28;10.87;;;8.07;;
12900;SDS011;6518;50.930;5.344;2023-02-28T06:51:55;10.70;;;7.70;;
12900;SDS011;6518;50.930;5.344;2023-02-28T06:54:22;8.63;;;7.27;;
12900;SDS011;6518;50.930;5.344;2023-02-28T06:56:49;15.13;;;7.50;;
12900;SDS011;6518;50.930;5.344;2023-02-28T06:59:18;11.10;;;7.80;;
12900;SDS011;6518;50.930;5.344;2023-02-28T07:01:45;11.23;;;7.67;;
12900;SDS011;6518;50.930;5.344;2023-02-28T07:04:11;10.33;;;7.87;;
12900;SDS011;6518;50.930;5.344;2023-02-28T07:06:39;9.50;;;7.70;;
12900;SDS011;6518;50.930;5.344;2023-02-28T07:09:05;12.20;;;7.23;;
12900;SDS011;6518;50.930;5.344;2023-02-28T07:11:33;12.03;;;7.50;;
12900;SDS011;6518;50.930;5.344;2023-02-28T07:14:00;8.43;;;6.97;;
12900;SDS011;6518;50.930;5.344;2023-02-28T07:16:28;8.27;;;6.73;;
12900;SDS011;6518;50.930;5.344;2023-02-28T07:18:55;9.13;;;6.83;;
12900;SDS011;6518;50.930;5.344;2023-02-28T07:21:22;10.20;;;7.37;;
12900;SDS011;6518;50.930;5.344;2023-02-28T07:23:49;9.20;;;6.90;;
12900;SDS011;6518;50.930;5.344;2023-02-28T07:26:17;9.00;;;7.03;;
12900;SDS011;6518;50.930;5.344;2023-02-28T07:28:46;10.83;;;6.70;;
12900;SDS011;6518;50.930;5.344;2023-02-28T07:31:14;12.03;;;6.73;;
12900;SDS011;6518;50.930;5.344;2023-02-28T07:33:43;10.20;;;7.37;;
12900;SDS011;6518;50.930;5.344;2023-02-28T07:36:11;10.37;;;6.43;;
12900;SDS011;6518;50.930;5.344;2023-02-28T07:38:40;11.47;;;6.53;;
12900;SDS011;6518;50.930;5.344;2023-02-28T07:41:08;8.57;;;6.37;;
12900;SDS011;6518;50.930;5.344;2023-02-28T07:43:36;12.33;;;6.10;;
12900;SDS011;6518;50.930;5.344;2023-02-28T07:46:03;7.23;;;6.17;;
12900;SDS011;6518;50.930;5.344;2023-02-28T07:48:31;9.87;;;6.10;;
12900;SDS011;6518;50.930;5.344;2023-02-28T07:50:59;11.33;;;6.53;;
12900;SDS011;6518;50.930;5.344;2023-02-28T07:53:26;10.47;;;6.63;;
12900;SDS011;6518;50.930;5.344;2023-02-28T07:55:54;9.07;;;6.43;;
12900;SDS011;6518;50.930;5.344;2023-02-28T07:58:22;8.93;;;5.43;;
12900;SDS011;6518;50.930;5.344;2023-02-28T08:00:49;7.97;;;5.30;;
12900;SDS011;6518;50.930;5.344;2023-02-28T08:03:16;8.50;;;5.27;;
12900;SDS011;6518;50.930;5.344;2023-02-28T08:05:44;7.50;;;5.20;;
12900;SDS011;6518;50.930;5.344;2023-02-28T08:08:12;8.07;;;5.53;;
12900;SDS011;6518;50.930;5.344;2023-02-28T08:10:39;9.50;;;5.47;;
12900;SDS011;6518;50.930;5.344;2023-02-28T08:13:06;6.37;;;5.17;;
12900;SDS011;6518;50.930;5.344;2023-02-28T08:15:33;7.87;;;4.87;;
12900;SDS011;6518;50.930;5.344;2023-02-28T08:18:01;8.87;;;5.27;;
12900;SDS011;6518;50.930;5.344;2023-02-28T08:20:28;7.10;;;5.00;;
12900;SDS011;6518;50.930;5.344;2023-02-28T08:22:55;7.73;;;4.73;;
12900;SDS011;6518;50.930;5.344;2023-02-28T08:25:23;7.67;;;4.87;;
12900;SDS011;6518;50.930;5.344;2023-02-28T08:27:50;7.83;;;3.93;;
12900;SDS011;6518;50.930;5.344;2023-02-28T08:30:18;5.67;;;4.27;;
12900;SDS011;6518;50.930;5.344;2023-02-28T08:32:45;10.77;;;5.17;;
12900;SDS011;6518;50.930;5.344;2023-02-28T08:35:11;6.30;;;4.40;;
12900;SDS011;6518;50.930;5.344;2023-02-28T08:37:39;8.60;;;4.30;;
12900;SDS011;6518;50.930;5.344;2023-02-28T08:40:06;6.40;;;3.87;;
12900;SDS011;6518;50.930;5.344;2023-02-28T08:42:35;7.63;;;4.07;;
12900;SDS011;6518;50.930;5.344;2023-02-28T08:45:03;8.40;;;4.40;;
12900;SDS011;6518;50.930;5.344;2023-02-28T08:47:30;5.63;;;3.97;;
12900;SDS011;6518;50.930;5.344;2023-02-28T08:49:57;7.97;;;4.40;;
12900;SDS011;6518;50.930;5.344;2023-02-28T08:52:23;9.40;;;4.70;;
12900;SDS011;6518;50.930;5.344;2023-02-28T08:54:50;6.60;;;4.10;;
12900;SDS011;6518;50.930;5.344;2023-02-28T08:57:17;6.13;;;3.80;;
12900;SDS011;6518;50.930;5.344;2023-02-28T08:59:45;7.43;;;4.53;;
12900;SDS011;6518;50.930;5.344;2023-02-28T09:02:12;6.37;;;3.60;;
12900;SDS011;6518;50.930;5.344;2023-02-28T09:04:40;7.70;;;4.03;;
12900;SDS011;6518;50.930;5.344;2023-02-28T09:07:07;4.70;;;3.53;;
12900;SDS011;6518;50.930;5.344;2023-02-28T09:09:34;6.20;;;4.00;;
12900;SDS011;6518;50.930;5.344;2023-02-28T09:12:01;6.53;;;3.50;;
12900;SDS011;6518;50.930;5.344;2023-02-28T09:14:28;6.07;;;3.60;;
12900;SDS011;6518;50.930;5.344;2023-02-28T09:16:56;6.60;;;3.60;;
12900;SDS011;6518;50.930;5.344;2023-02-28T09:19:24;5.43;;;3.20;;
12900;SDS011;6518;50.930;5.344;2023-02-28T09:21:50;6.37;;;3.60;;
12900;SDS011;6518;50.930;5.344;2023-02-28T09:24:17;4.70;;;3.50;;
12900;SDS011;6518;50.930;5.344;2023-02-28T09:26:45;4.33;;;3.00;;
12900;SDS011;6518;50.930;5.344;2023-02-28T09:29:12;3.57;;;2.70;;
12900;SDS011;6518;50.930;5.344;2023-02-28T09:31:39;4.27;;;2.30;;
12900;SDS011;6518;50.930;5.344;2023-02-28T09:34:07;9.23;;;2.60;;
12900;SDS011;6518;50.930;5.344;2023-02-28T09:36:34;2.23;;;1.97;;
12900;SDS011;6518;50.930;5.344;2023-02-28T09:39:03;2.40;;;1.80;;
12900;SDS011;6518;50.930;5.344;2023-02-28T09:41:31;3.70;;;2.30;;
12900;SDS011;6518;50.930;5.344;2023-02-28T09:44:13;3.70;;;2.50;;
12900;SDS011;6518;50.930;5.344;2023-02-28T09:46:47;4.20;;;2.30;;
12900;SDS011;6518;50.930;5.344;2023-02-28T09:49:19;3.17;;;2.30;;
12900;SDS011;6518;50.930;5.344;2023-02-28T09:51:53;3.00;;;1.87;;
12900;SDS011;6518;50.930;5.344;2023-02-28T09:54:26;6.37;;;2.20;;
12900;SDS011;6518;50.930;5.344;2023-02-28T09:56:56;3.60;;;2.30;;
12900;SDS011;6518;50.930;5.344;2023-02-28T09:59:42;4.07;;;2.40;;
12900;SDS011;6518;50.930;5.344;2023-02-28T10:02:24;4.73;;;2.27;;
12900;SDS011;6518;50.930;5.344;2023-02-28T10:05:09;2.90;;;2.07;;
12900;SDS011;6518;50.930;5.344;2023-02-28T10:07:45;8.37;;;2.70;;
12900;SDS011;6518;50.930;5.344;2023-02-28T10:10:21;4.70;;;2.53;;
12900;SDS011;6518;50.930;5.344;2023-02-28T10:12:51;2.73;;;1.90;;
12900;SDS011;6518;50.930;5.344;2023-02-28T10:15:21;2.97;;;1.73;;
12900;SDS011;6518;50.930;5.344;2023-02-28T10:17:52;2.90;;;2.03;;
12900;SDS011;6518;50.930;5.344;2023-02-28T10:20:24;4.27;;;2.27;;
12900;SDS011;6518;50.930;5.344;2023-02-28T10:22:57;4.33;;;2.00;;
12900;SDS011;6518;50.930;5.344;2023-02-28T10:25:33;3.00;;;2.20;;
12900;SDS011;6518;50.930;5.344;2023-02-28T10:28:04;6.27;;;2.50;;
12900;SDS011;6518;50.930;5.344;2023-02-28T10:30:36;4.00;;;2.10;;
12900;SDS011;6518;50.930;5.344;2023-02-28T10:33:08;1.43;;;1.20;;
12900;SDS011;6518;50.930;5.344;2023-02-28T10:35:46;3.40;;;2.70;;
12900;SDS011;6518;50.930;5.344;2023-02-28T10:38:15;4.37;;;2.60;;
12900;SDS011;6518;50.930;5.344;2023-02-28T10:40:43;5.57;;;1.90;;
12900;SDS011;6518;50.930;5.344;2023-02-28T10:43:21;2.47;;;1.97;;
12900;SDS011;6518;50.930;5.344;2023-02-28T10:45:53;2.73;;;2.17;;
12900;SDS011;6518;50.930;5.344;2023-02-28T10:48:29;3.53;;;2.00;;
12900;SDS011;6518;50.930;5.344;2023-02-28T10:51:01;3.83;;;2.20;;
12900;SDS011;6518;50.930;5.344;2023-02-28T10:53:31;3.50;;;2.03;;
12900;SDS011;6518;50.930;5.344;2023-02-28T10:56:01;3.23;;;1.87;;
12900;SDS011;6518;50.930;5.344;2023-02-28T10:58:31;6.37;;;1.93;;
12900;SDS011;6518;50.930;5.344;2023-02-28T11:01:12;2.50;;;1.73;;
12900;SDS011;6518;50.930;5.344;2023-02-28T11:03:41;3.03;;;2.10;;
12900;SDS011;6518;50.930;5.344;2023-02-28T11:06:12;4.33;;;2.17;;
12900;SDS011;6518;50.930;5.344;2023-02-28T11:08:43;2.70;;;2.03;;
12900;SDS011;6518;50.930;5.344;2023-02-28T11:11:12;3.83;;;1.70;;
12900;SDS011;6518;50.930;5.344;2023-02-28T11:13:39;3.17;;;1.87;;
12900;SDS011;6518;50.930;5.344;2023-02-28T11:16:07;5.10;;;2.23;;
12900;SDS011;6518;50.930;5.344;2023-02-28T11:18:38;6.50;;;2.37;;
12900;SDS011;6518;50.930;5.344;2023-02-28T11:21:09;2.83;;;1.80;;
12900;SDS011;6518;50.930;5.344;2023-02-28T11:23:44;3.23;;;1.90;;
12900;SDS011;6518;50.930;5.344;2023-02-28T11:26:34;1.87;;;1.70;;
12900;SDS011;6518;50.930;5.344;2023-02-28T11:29:03;3.50;;;1.90;;
12900;SDS011;6518;50.930;5.344;2023-02-28T11:31:54;3.03;;;1.70;;
12900;SDS011;6518;50.930;5.344;2023-02-28T11:34:29;2.83;;;1.80;;
12900;SDS011;6518;50.930;5.344;2023-02-28T11:36:59;2.23;;;1.97;;
12900;SDS011;6518;50.930;5.344;2023-02-28T11:39:30;2.33;;;1.73;;
12900;SDS011;6518;50.930;5.344;2023-02-28T11:42:19;2.50;;;2.00;;
12900;SDS011;6518;50.930;5.344;2023-02-28T11:45:03;3.60;;;1.50;;
12900;SDS011;6518;50.930;5.344;2023-02-28T11:47:45;3.90;;;1.80;;
12900;SDS011;6518;50.930;5.344;2023-02-28T11:50:25;2.20;;;1.80;;
12900;SDS011;6518;50.930;5.344;2023-02-28T11:53:10;2.40;;;1.90;;
12900;SDS011;6518;50.930;5.344;2023-02-28T11:55:43;2.23;;;1.70;;
12900;SDS011;6518;50.930;5.344;2023-02-28T11:58:14;4.07;;;1.83;;
12900;SDS011;6518;50.930;5.344;2023-02-28T12:03:39;5.13;;;2.13;;
12900;SDS011;6518;50.930;5.344;2023-02-28T12:06:15;3.87;;;1.90;;
12900;SDS011;6518;50.930;5.344;2023-02-28T12:08:56;6.00;;;2.13;;
12900;SDS011;6518;50.930;5.344;2023-02-28T12:11:34;2.90;;;2.20;;
12900;SDS011;6518;50.930;5.344;2023-02-28T12:14:21;4.13;;;2.30;;
12900;SDS011;6518;50.930;5.344;2023-02-28T12:17:19;3.33;;;1.90;;
12900;SDS011;6518;50.930;5.344;2023-02-28T12:19:54;2.80;;;1.97;;
12900;SDS011;6518;50.930;5.344;2023-02-28T12:22:31;4.40;;;2.30;;
12900;SDS011;6518;50.930;5.344;2023-02-28T12:28:15;2.67;;;1.43;;
12900;SDS011;6518;50.930;5.344;2023-02-28T12:30:49;2.70;;;1.87;;
12900;SDS011;6518;50.930;5.344;2023-02-28T12:33:21;2.13;;;1.93;;
12900;SDS011;6518;50.930;5.344;2023-02-28T12:35:51;2.23;;;1.83;;
12900;SDS011;6518;50.930;5.344;2023-02-28T12:38:22;4.83;;;2.03;;
12900;SDS011;6518;50.930;5.344;2023-02-28T12:40:53;9.07;;;2.13;;
12900;SDS011;6518;50.930;5.344;2023-02-28T12:43:25;3.40;;;2.30;;
12900;SDS011;6518;50.930;5.344;2023-02-28T12:45:58;3.43;;;2.13;;
12900;SDS011;6518;50.930;5.344;2023-02-28T12:48:30;2.30;;;1.53;;
12900;SDS011;6518;50.930;5.344;2023-02-28T12:51:02;3.07;;;2.40;;
12900;SDS011;6518;50.930;5.344;2023-02-28T12:53:33;2.87;;;2.23;;
12900;SDS011;6518;50.930;5.344;2023-02-28T12:56:11;3.73;;;2.30;;
12900;SDS011;6518;50.930;5.344;2023-02-28T12:58:45;4.90;;;2.40;;
12900;SDS011;6518;50.930;5.344;2023-02-28T13:10:36;2.57;;;1.90;;
12900;SDS011;6518;50.930;5.344;2023-02-28T13:13:05;3.53;;;2.07;;
12900;SDS011;6518;50.930;5.344;2023-02-28T13:15:41;4.03;;;2.70;;
12900;SDS011;6518;50.930;5.344;2023-02-28T13:18:35;4.10;;;2.27;;
12900;SDS011;6518;50.930;5.344;2023-02-28T13:21:04;4.57;;;2.43;;
12900;SDS011;6518;50.930;5.344;2023-02-28T13:23:37;2.93;;;2.57;;
12900;SDS011;6518;50.930;5.344;2023-02-28T13:26:21;2.93;;;2.40;;
12900;SDS011;6518;50.930;5.344;2023-02-28T13:38:12;5.60;;;2.90;;
12900;SDS011;6518;50.930;5.344;2023-02-28T13:40:43;6.40;;;2.73;;
12900;SDS011;6518;50.930;5.344;2023-02-28T13:43:10;6.40;;;2.57;;
12900;SDS011;6518;50.930;5.344;2023-02-28T13:45:37;4.37;;;1.93;;
12900;SDS011;6518;50.930;5.344;2023-02-28T13:48:05;2.30;;;1.80;;
12900;SDS011;6518;50.930;5.344;2023-02-28T13:50:45;4.13;;;2.37;;
12900;SDS011;6518;50.930;5.344;2023-02-28T13:53:24;6.70;;;2.83;;
12900;SDS011;6518;50.930;5.344;2023-02-28T13:56:07;3.30;;;2.60;;
12900;SDS011;6518;50.930;5.344;2023-02-28T13:58:48;2.47;;;2.17;;
12900;SDS011;6518;50.930;5.344;2023-02-28T14:01:23;4.70;;;2.67;;
12900;SDS011;6518;50.930;5.344;2023-02-28T14:07:06;5.70;;;2.33;;
12900;SDS011;6518;50.930;5.344;2023-02-28T14:09:35;3.10;;;2.50;;
12900;SDS011;6518;50.930;5.344;2023-02-28T14:18:16;3.83;;;2.13;;
12900;SDS011;6518;50.930;5.344;2023-02-28T14:20:47;2.77;;;2.30;;
12900;SDS011;6518;50.930;5.344;2023-02-28T14:23:19;4.43;;;2.83;;
12900;SDS011;6518;50.930;5.344;2023-02-28T14:25:59;8.27;;;3.07;;
12900;SDS011;6518;50.930;5.344;2023-02-28T14:28:37;4.30;;;2.70;;
12900;SDS011;6518;50.930;5.344;2023-02-28T14:31:17;3.00;;;2.37;;
12900;SDS011;6518;50.930;5.344;2023-02-28T14:34:02;4.00;;;2.30;;
12900;SDS011;6518;50.930;5.344;2023-02-28T14:36:40;6.53;;;2.73;;
12900;SDS011;6518;50.930;5.344;2023-02-28T14:39:12;2.50;;;2.20;;
12900;SDS011;6518;50.930;5.344;2023-02-28T14:41:41;2.93;;;2.50;;
12900;SDS011;6518;50.930;5.344;2023-02-28T14:44:16;2.90;;;2.57;;
12900;SDS011;6518;50.930;5.344;2023-02-28T14:46:44;6.03;;;2.50;;
12900;SDS011;6518;50.930;5.344;2023-02-28T14:49:15;6.53;;;2.73;;
12900;SDS011;6518;50.930;5.344;2023-02-28T14:51:45;4.30;;;2.80;;
12900;SDS011;6518;50.930;5.344;2023-02-28T14:54:15;3.63;;;2.50;;
12900;SDS011;6518;50.930;5.344;2023-02-28T14:56:43;4.13;;;2.47;;
12900;SDS011;6518;50.930;5.344;2023-02-28T14:59:26;3.70;;;2.30;;
12900;SDS011;6518;50.930;5.344;2023-02-28T15:04:42;3.80;;;2.00;;
12900;SDS011;6518;50.930;5.344;2023-02-28T15:07:09;3.40;;;2.40;;
12900;SDS011;6518;50.930;5.344;2023-02-28T15:09:38;3.27;;;2.30;;
12900;SDS011;6518;50.930;5.344;2023-02-28T15:12:05;3.57;;;2.47;;
12900;SDS011;6518;50.930;5.344;2023-02-28T15:14:32;4.90;;;2.23;;
12900;SDS011;6518;50.930;5.344;2023-02-28T15:17:02;3.53;;;2.23;;
12900;SDS011;6518;50.930;5.344;2023-02-28T15:19:34;5.57;;;3.00;;
12900;SDS011;6518;50.930;5.344;2023-02-28T15:22:06;3.03;;;2.33;;
12900;SDS011;6518;50.930;5.344;2023-02-28T15:24:40;4.63;;;2.50;;
12900;SDS011;6518;50.930;5.344;2023-02-28T15:27:11;3.43;;;2.50;;
12900;SDS011;6518;50.930;5.344;2023-02-28T15:29:44;2.73;;;2.50;;
12900;SDS011;6518;50.930;5.344;2023-02-28T15:32:24;3.03;;;2.27;;
12900;SDS011;6518;50.930;5.344;2023-02-28T15:34:54;5.60;;;3.00;;
12900;SDS011;6518;50.930;5.344;2023-02-28T15:37:29;3.27;;;2.30;;
12900;SDS011;6518;50.930;5.344;2023-02-28T15:40:10;5.87;;;2.73;;
12900;SDS011;6518;50.930;5.344;2023-02-28T15:42:39;3.87;;;2.87;;
12900;SDS011;6518;50.930;5.344;2023-02-28T15:47:53;4.00;;;2.50;;
12900;SDS011;6518;50.930;5.344;2023-02-28T15:50:21;3.63;;;2.63;;
12900;SDS011;6518;50.930;5.344;2023-02-28T15:52:48;4.43;;;3.10;;
12900;SDS011;6518;50.930;5.344;2023-02-28T15:55:17;3.00;;;2.50;;
12900;SDS011;6518;50.930;5.344;2023-02-28T15:57:45;5.10;;;3.20;;
12900;SDS011;6518;50.930;5.344;2023-02-28T16:00:15;3.63;;;2.93;;
12900;SDS011;6518;50.930;5.344;2023-02-28T16:02:45;3.00;;;2.67;;
12900;SDS011;6518;50.930;5.344;2023-02-28T16:05:18;4.10;;;2.60;;